Time;durP1;ratioP1;P1;durP2;ratioP2;P2;SDS_P1;SDS_P2;PMS_P1;PMS_P2;Temp;Humidity;BMP_temperature;BMP_pressure;BME280_temperature;BME280_humidity;BME280_pressure;Samples;Min_cycle;Max_cycle;Signal;HPM_P1;HPM_P2
2022/12/24 00:01:22;;;;;;;7.20;2.50;;;20.50;46.50;;;;;;5041876;28;20510;-52
2022/12/24 00:03:48;;;;;;;6.85;2.17;;;20.50;46.50;;;;;;5048368;28;20041;-53
2022/12/24 00:06:20;;;;;;;7.78;2.10;;;20.50;46.40;;;;;;5048031;28;20022;-51
2022/12/24 00:08:46;;;;;;;7.22;2.60;;;20.50;46.40;;;;;;5033015;28;20429;-53
2022/12/24 00:11:11;;;;;;;9.05;2.58;;;20.50;46.40;;;;;;5049482;28;20095;-54
2022/12/24 00:13:38;;;;;;;7.22;2.15;;;20.50;46.40;;;;;;5045729;28;20388;-50
2022/12/24 00:16:04;;;;;;;6.85;2.40;;;20.50;46.40;;;;;;5048228;28;20056;-47
2022/12/24 00:18:30;;;;;;;6.03;2.20;;;20.50;46.40;;;;;;5053246;28;20519;-54
2022/12/24 00:20:56;;;;;;;6.07;2.38;;;20.50;46.40;;;;;;5052502;28;20155;-51
2022/12/24 00:23:22;;;;;;;8.85;3.03;;;20.50;46.40;;;;;;5052617;28;20444;-49
2022/12/24 00:25:47;;;;;;;6.40;2.55;;;20.50;46.40;;;;;;5055205;28;20041;-54
2022/12/24 00:28:14;;;;;;;7.13;2.45;;;20.50;46.30;;;;;;5053155;28;20496;-51
2022/12/24 00:30:41;;;;;;;8.25;2.33;;;20.50;46.30;;;;;;5054845;28;20472;-50
2022/12/24 00:33:07;;;;;;;8.70;2.58;;;20.40;46.20;;;;;;5052933;28;20077;-50
2022/12/24 00:35:34;;;;;;;8.82;2.60;;;20.50;46.20;;;;;;5054075;28;20025;-52
2022/12/24 00:38:00;;;;;;;8.82;2.63;;;20.40;46.20;;;;;;5052962;28;20041;-50
2022/12/24 00:40:26;;;;;;;8.70;2.58;;;20.50;46.20;;;;;;5054082;28;20032;-49
2022/12/24 00:42:51;;;;;;;6.03;2.22;;;20.40;46.00;;;;;;5051607;28;20053;-50
2022/12/24 00:45:17;;;;;;;6.05;2.05;;;20.40;45.90;;;;;;5053729;28;20346;-49
2022/12/24 00:47:43;;;;;;;6.60;2.28;;;20.40;45.90;;;;;;5052483;28;20036;-51
2022/12/24 00:50:09;;;;;;;5.97;2.50;;;20.40;45.90;;;;;;5053372;28;20029;-53
2022/12/24 00:52:35;;;;;;;8.88;2.50;;;20.40;45.90;;;;;;5053302;28;20035;-53
2022/12/24 00:55:02;;;;;;;5.53;2.10;;;20.40;45.90;;;;;;5053251;28;20371;-53
2022/12/24 00:57:28;;;;;;;8.48;2.60;;;20.40;45.90;;;;;;5053394;28;20033;-51
2022/12/24 00:59:54;;;;;;;7.22;2.20;;;20.40;45.90;;;;;;5052471;28;20452;-55
2022/12/24 01:02:20;;;;;;;9.40;2.42;;;20.40;45.90;;;;;;5053307;28;20021;-48
2022/12/24 01:07:30;;;;;;;8.75;2.53;;;20.40;45.90;;;;;;5051018;28;20037;-48
2022/12/24 01:09:56;;;;;;;6.28;2.33;;;20.40;45.90;;;;;;5053569;28;20486;-45
2022/12/24 01:12:22;;;;;;;7.68;2.58;;;20.40;46.00;;;;;;5052673;28;20041;-48
2022/12/24 01:14:48;;;;;;;8.52;2.55;;;20.30;45.90;;;;;;5052993;28;20047;-48
2022/12/24 01:17:14;;;;;;;9.35;2.55;;;20.40;45.90;;;;;;5049448;28;20053;-51
2022/12/24 01:19:40;;;;;;;8.80;2.70;;;20.30;45.90;;;;;;5051976;28;20044;-50
2022/12/24 01:22:06;;;;;;;7.57;2.53;;;20.30;45.90;;;;;;5052556;28;20036;-48
2022/12/24 01:24:31;;;;;;;7.45;2.65;;;20.30;45.90;;;;;;5052513;28;20025;-50
2022/12/24 01:26:57;;;;;;;7.10;2.30;;;20.30;45.90;;;;;;5053663;28;22099;-53
2022/12/24 01:29:23;;;;;;;9.40;3.08;;;20.30;45.90;;;;;;5052256;28;20060;-52
2022/12/24 01:31:49;;;;;;;8.40;2.95;;;20.30;45.90;;;;;;5052408;28;20124;-50
2022/12/24 01:34:15;;;;;;;8.05;2.58;;;20.30;45.90;;;;;;5051766;28;20086;-49
2022/12/24 01:36:40;;;;;;;9.23;3.20;;;20.30;45.90;;;;;;5052492;28;20040;-49
2022/12/24 01:39:06;;;;;;;7.72;2.75;;;20.30;45.90;;;;;;5050633;28;20033;-49
2022/12/24 01:44:21;;;;;;;;;;;20.30;45.90;;;;;;5050130;28;20111;-53
2022/12/24 01:46:52;;;;;;;8.10;2.72;;;20.30;45.90;;;;;;5051921;28;20260;-51
2022/12/24 01:49:19;;;;;;;10.63;3.05;;;20.30;45.90;;;;;;5051128;28;20057;-48
2022/12/24 01:51:57;;;;;;;9.60;3.10;;;20.20;45.90;;;;;;5052490;28;20041;-50
2022/12/24 01:54:51;;;;;;;8.30;2.75;;;20.20;45.80;;;;;;5052522;28;20037;-51
2022/12/24 01:57:34;;;;;;;7.18;2.47;;;20.20;45.80;;;;;;5041117;28;20045;-53
2022/12/24 02:00:09;;;;;;;9.35;2.55;;;20.20;45.80;;;;;;5051203;28;20111;-48
2022/12/24 02:02:37;;;;;;;10.32;2.88;;;20.20;45.80;;;;;;5050769;28;20033;-50
2022/12/24 02:05:17;;;;;;;9.80;2.97;;;20.20;45.80;;;;;;5052261;28;20098;-47
2022/12/24 02:07:45;;;;;;;8.38;2.50;;;20.20;45.80;;;;;;5045068;28;20033;-49
2022/12/24 02:10:13;;;;;;;9.05;2.90;;;20.20;45.80;;;;;;5050003;28;20028;-47
2022/12/24 02:12:42;;;;;;;7.78;3.20;;;20.20;45.80;;;;;;5048838;28;20035;-49
2022/12/24 02:15:10;;;;;;;9.32;2.60;;;20.20;45.80;;;;;;5050606;28;20064;-49
2022/12/24 02:17:41;;;;;;;7.07;2.53;;;20.20;45.80;;;;;;5050126;28;20037;-47
2022/12/24 02:20:25;;;;;;;10.60;2.92;;;20.20;45.80;;;;;;5049282;28;20048;-47
2022/12/24 02:23:16;;;;;;;9.40;3.22;;;20.20;45.70;;;;;;5050297;28;20029;-52
2022/12/24 02:25:52;;;;;;;9.73;2.58;;;20.20;45.70;;;;;;5051838;28;20452;-47
2022/12/24 02:28:49;;;;;;;9.23;3.00;;;20.20;45.70;;;;;;5050464;28;20021;-48
2022/12/24 02:31:33;;;;;;;10.85;2.90;;;20.20;45.70;;;;;;5046436;28;20037;-46
2022/12/24 02:34:18;;;;;;;9.52;2.90;;;20.10;45.60;;;;;;5049418;28;20028;-51
2022/12/24 02:36:55;;;;;;;7.80;2.67;;;20.10;45.60;;;;;;5050844;28;20167;-45
2022/12/24 02:39:37;;;;;;;9.75;2.65;;;20.10;45.60;;;;;;5051334;28;20029;-47
2022/12/24 02:42:05;;;;;;;7.85;2.40;;;20.10;45.80;;;;;;5053214;28;20345;-46
2022/12/24 02:44:39;;;;;;;8.95;3.13;;;20.10;45.80;;;;;;5048734;28;20067;-49
2022/12/24 02:47:08;;;;;;;9.25;3.10;;;20.10;45.80;;;;;;5051821;28;20024;-51
2022/12/24 02:49:35;;;;;;;10.88;2.83;;;20.10;45.70;;;;;;5051270;28;20072;-56
2022/12/24 02:52:01;;;;;;;7.75;2.67;;;20.10;46.20;;;;;;5052064;28;20415;-53
2022/12/24 02:54:28;;;;;;;9.15;2.70;;;20.10;45.50;;;;;;5051116;28;20037;-51
2022/12/24 02:57:02;;;;;;;6.60;2.00;;;20.10;45.50;;;;;;5051176;28;20384;-54
2022/12/24 03:00:05;;;;;;;10.50;2.88;;;20.10;45.50;;;;;;5051370;28;20044;-48
2022/12/24 03:02:36;;;;;;;9.65;2.88;;;20.10;45.40;;;;;;5035702;28;20411;-47
2022/12/24 03:05:05;;;;;;;7.03;2.30;;;20.10;45.40;;;;;;5048267;28;20040;-51
2022/12/24 03:07:44;;;;;;;8.52;2.75;;;20.10;45.30;;;;;;5050236;28;20043;-52
2022/12/24 03:10:36;;;;;;;8.38;2.58;;;20.10;45.20;;;;;;5050464;28;20040;-51
2022/12/24 03:13:07;;;;;;;9.90;2.70;;;20.10;45.20;;;;;;5050661;28;20448;-52
2022/12/24 03:15:35;;;;;;;9.65;2.80;;;20.10;45.20;;;;;;5050798;28;20040;-54
2022/12/24 03:18:05;;;;;;;9.73;2.78;;;20.10;45.20;;;;;;5011299;28;20072;-49
2022/12/24 03:20:42;;;;;;;7.03;2.42;;;20.10;45.20;;;;;;5011270;28;20038;-50
2022/12/24 03:23:10;;;;;;;7.53;2.42;;;20.10;45.10;;;;;;5010687;28;20033;-52
2022/12/24 03:25:40;;;;;;;7.25;2.75;;;20.10;45.10;;;;;;5009234;28;20068;-50
2022/12/24 03:28:07;;;;;;;9.75;2.30;;;20.10;45.10;;;;;;5010724;28;20040;-49
2022/12/24 03:30:33;;;;;;;9.35;2.67;;;20.10;45.10;;;;;;5011598;28;20042;-49
2022/12/24 03:32:59;;;;;;;7.53;2.40;;;20.10;45.10;;;;;;5010427;28;20092;-50
2022/12/24 03:35:25;;;;;;;10.80;3.05;;;20.10;45.10;;;;;;5012137;28;20029;-46
2022/12/24 03:37:51;;;;;;;8.80;2.58;;;20.10;45.10;;;;;;5007364;28;20025;-49
2022/12/24 03:40:17;;;;;;;8.32;2.33;;;20.10;45.10;;;;;;5012146;28;20030;-51
2022/12/24 03:42:42;;;;;;;9.05;2.45;;;20.10;45.70;;;;;;5008056;28;20064;-52
2022/12/24 03:45:09;;;;;;;9.55;2.75;;;20.10;45.10;;;;;;5011679;28;20087;-52
2022/12/24 03:47:35;;;;;;;8.32;2.70;;;20.20;45.10;;;;;;5010887;28;20041;-50
2022/12/24 03:50:01;;;;;;;7.90;2.50;;;20.10;45.10;;;;;;5011579;28;20025;-50
2022/12/24 03:52:27;;;;;;;8.02;3.13;;;20.10;45.10;;;;;;5010806;28;20453;-50
2022/12/24 03:54:53;;;;;;;7.65;2.67;;;20.20;45.10;;;;;;5009208;28;20072;-46
2022/12/24 03:57:19;;;;;;;7.50;2.50;;;20.10;45.10;;;;;;5011184;28;20444;-49
2022/12/24 03:59:44;;;;;;;8.68;2.58;;;20.10;45.10;;;;;;5010926;28;20022;-49
2022/12/24 04:02:10;;;;;;;10.82;2.97;;;20.10;45.20;;;;;;5011874;28;20117;-48
2022/12/24 04:04:36;;;;;;;8.20;2.67;;;20.20;45.20;;;;;;5008974;28;20366;-49
2022/12/24 04:07:03;;;;;;;8.00;2.80;;;20.10;45.20;;;;;;5012264;28;20025;-49
2022/12/24 04:09:29;;;;;;;8.68;2.58;;;20.10;45.20;;;;;;5013832;28;20057;-51
2022/12/24 04:11:55;;;;;;;6.82;2.33;;;20.10;45.20;;;;;;5015373;28;20033;-48
2022/12/24 04:14:21;;;;;;;8.18;2.80;;;20.10;45.20;;;;;;5013803;28;20113;-49
2022/12/24 04:16:47;;;;;;;8.07;3.00;;;20.20;45.90;;;;;;5034698;28;20056;-49
2022/12/24 04:19:12;;;;;;;8.45;2.85;;;20.10;45.30;;;;;;5052171;28;20053;-51
2022/12/24 04:21:38;;;;;;;9.00;2.85;;;20.10;45.30;;;;;;5049119;28;20032;-47
2022/12/24 04:24:04;;;;;;;8.55;2.83;;;20.10;45.40;;;;;;5054023;28;20433;-48
2022/12/24 04:26:30;;;;;;;10.65;2.88;;;20.10;45.40;;;;;;5054642;28;20500;-49
2022/12/24 04:28:56;;;;;;;7.28;2.63;;;20.10;45.40;;;;;;5053569;28;20025;-47
2022/12/24 04:31:22;;;;;;;9.70;3.00;;;20.10;45.50;;;;;;5048851;28;20051;-49
2022/12/24 04:33:51;;;;;;;7.82;2.47;;;20.10;45.50;;;;;;5053799;28;20029;-51
2022/12/24 04:36:18;;;;;;;9.52;2.90;;;20.10;45.60;;;;;;5054682;28;20091;-50
2022/12/24 04:38:45;;;;;;;8.20;2.63;;;20.10;45.60;;;;;;5052515;28;20025;-48
2022/12/24 04:41:16;;;;;;;8.75;2.45;;;20.10;45.70;;;;;;5054159;28;20470;-49
2022/12/24 04:43:42;;;;;;;10.50;2.72;;;20.10;46.40;;;;;;5052734;28;20025;-50
2022/12/24 04:46:16;;;;;;;7.30;2.55;;;20.10;45.80;;;;;;5053531;28;20028;-47
2022/12/24 04:48:42;;;;;;;;;;;20.10;45.80;;;;;;5050861;28;20063;-50
2022/12/24 04:51:09;;;;;;;7.53;2.28;;;20.10;45.80;;;;;;5053794;28;19917;-54
2022/12/24 04:53:36;;;;;;;8.45;2.60;;;20.10;45.80;;;;;;5052796;28;20039;-54
2022/12/24 04:56:02;;;;;;;8.75;2.72;;;20.10;45.80;;;;;;5048418;28;20037;-53
2022/12/24 04:58:28;;;;;;;6.95;2.35;;;20.10;45.80;;;;;;5054274;28;20029;-49
2022/12/24 05:00:54;;;;;;;7.07;2.40;;;20.10;46.00;;;;;;5053187;28;20402;-50
2022/12/24 05:03:21;;;;;;;8.25;2.83;;;20.10;46.00;;;;;;5052616;28;20035;-49
2022/12/24 05:05:46;;;;;;;6.35;2.63;;;20.10;46.00;;;;;;5053304;28;20032;-51
2022/12/24 05:08:13;;;;;;;8.95;2.45;;;20.10;46.10;;;;;;5051572;28;20352;-48
2022/12/24 05:10:39;;;;;;;8.05;2.45;;;20.10;46.10;;;;;;5053276;28;20037;-49
2022/12/24 05:13:04;;;;;;;9.57;2.75;;;20.10;46.20;;;;;;5053909;28;20033;-49
2022/12/24 05:15:30;;;;;;;8.02;2.50;;;20.10;46.20;;;;;;5053258;28;20091;-48
2022/12/24 05:17:57;;;;;;;8.90;2.78;;;20.10;46.30;;;;;;5050606;28;20037;-49
2022/12/24 05:20:23;;;;;;;7.30;2.40;;;20.10;46.30;;;;;;5051805;28;20079;-51
2022/12/24 05:28:23;;;;;;;6.80;2.25;;;20.10;46.40;;;;;;5053073;28;20021;-51
2022/12/24 05:30:49;;;;;;;9.30;2.70;;;20.10;46.40;;;;;;5051840;28;20080;-50
2022/12/24 05:33:15;;;;;;;7.97;2.72;;;20.10;46.50;;;;;;5053164;28;20052;-49
2022/12/24 05:35:41;;;;;;;7.72;2.53;;;20.10;46.50;;;;;;5053215;28;20051;-52
2022/12/24 05:38:07;;;;;;;7.32;2.80;;;20.10;46.50;;;;;;5052791;28;20448;-49
2022/12/24 05:40:33;;;;;;;8.57;2.65;;;20.10;46.60;;;;;;5053247;28;20033;-50
2022/12/24 05:42:58;;;;;;;7.38;2.20;;;20.10;46.60;;;;;;5049589;28;20048;-48
2022/12/24 05:45:24;;;;;;;7.43;2.55;;;20.10;46.60;;;;;;5053253;28;20488;-46
2022/12/24 05:47:50;;;;;;;9.50;2.70;;;20.10;46.60;;;;;;5051721;28;20033;-49
2022/12/24 05:50:16;;;;;;;8.27;2.90;;;20.10;46.70;;;;;;5052310;28;20099;-47
2022/12/24 05:52:41;;;;;;;8.05;2.72;;;20.00;46.70;;;;;;5052016;28;20040;-49
2022/12/24 05:55:08;;;;;;;8.27;2.75;;;20.00;46.70;;;;;;5050750;28;20024;-50
2022/12/24 05:57:34;;;;;;;9.05;3.08;;;20.00;46.80;;;;;;5051304;28;20017;-51
2022/12/24 05:59:59;;;;;;;9.43;3.03;;;20.00;46.80;;;;;;5053005;28;20479;-48
2022/12/24 06:02:25;;;;;;;8.90;2.75;;;20.10;46.90;;;;;;5052091;28;20021;-48
2022/12/24 06:04:51;;;;;;;8.15;2.88;;;20.00;46.80;;;;;;5052114;28;20035;-49
2022/12/24 06:07:17;;;;;;;9.30;2.65;;;20.00;46.90;;;;;;5050851;28;20041;-50
2022/12/24 06:09:43;;;;;;;7.55;2.67;;;20.00;46.90;;;;;;5052415;28;20078;-52
2022/12/24 06:12:08;;;;;;;9.27;2.95;;;20.00;46.90;;;;;;5052801;28;20503;-49
2022/12/24 06:14:34;;;;;;;9.70;2.80;;;20.00;46.90;;;;;;5051737;28;20036;-48
2022/12/24 06:17:00;;;;;;;6.47;2.53;;;20.00;46.90;;;;;;5050844;28;20412;-51
2022/12/24 06:19:26;;;;;;;7.32;2.70;;;20.00;46.90;;;;;;5051129;28;20462;-55
2022/12/24 06:21:51;;;;;;;9.05;3.08;;;20.00;47.00;;;;;;5051706;28;20040;-52
2022/12/24 06:24:17;;;;;;;7.57;2.75;;;20.00;46.90;;;;;;5031015;28;20100;-49
2022/12/24 06:26:43;;;;;;;6.97;2.45;;;20.00;47.00;;;;;;5051874;28;20488;-49
2022/12/24 06:29:10;;;;;;;9.00;2.60;;;20.00;47.00;;;;;;5050978;28;20025;-48
2022/12/24 06:31:36;;;;;;;7.82;3.03;;;20.00;47.00;;;;;;5049718;28;20048;-52
2022/12/24 06:34:02;;;;;;;8.65;2.55;;;20.00;47.00;;;;;;5050356;28;20036;-51
2022/12/24 06:36:28;;;;;;;7.70;3.00;;;20.00;47.00;;;;;;5051981;28;20025;-51
2022/12/24 06:38:54;;;;;;;10.68;2.67;;;20.00;47.00;;;;;;5051175;28;20349;-50
2022/12/24 06:41:20;;;;;;;7.53;2.55;;;20.00;47.00;;;;;;5050712;28;20059;-50
2022/12/24 06:43:49;;;;;;;8.27;2.70;;;20.00;47.00;;;;;;5051636;28;20117;-54
2022/12/24 06:46:15;;;;;;;9.32;3.20;;;20.00;47.00;;;;;;5049304;28;20033;-53
2022/12/24 06:48:43;;;;;;;8.98;3.20;;;20.00;47.00;;;;;;5049974;28;20433;-54
2022/12/24 06:51:09;;;;;;;8.25;2.67;;;20.00;47.00;;;;;;5051303;28;20041;-54
2022/12/24 06:53:35;;;;;;;9.15;2.53;;;20.00;47.00;;;;;;5050954;28;20491;-51
2022/12/24 06:56:06;;;;;;;9.15;2.90;;;20.00;47.00;;;;;;5051702;28;20033;-49
2022/12/24 06:58:33;;;;;;;8.75;2.67;;;20.00;47.00;;;;;;5050353;28;20029;-50
2022/12/24 07:01:03;;;;;;;8.40;2.67;;;20.00;47.00;;;;;;5050290;28;20068;-48
2022/12/24 07:03:30;;;;;;;7.97;2.47;;;20.00;47.00;;;;;;5050974;28;20356;-46
2022/12/24 07:05:56;;;;;;;8.45;2.60;;;19.90;47.00;;;;;;5052582;28;20028;-47
2022/12/24 07:08:22;;;;;;;7.07;2.38;;;20.00;47.00;;;;;;5048829;28;20025;-49
2022/12/24 07:10:50;;;;;;;9.65;2.78;;;19.90;47.00;;;;;;5051161;28;20124;-49
2022/12/24 07:13:17;;;;;;;6.32;2.30;;;19.90;47.00;;;;;;5050927;28;20424;-50
2022/12/24 07:15:43;;;;;;;6.05;2.45;;;19.90;47.00;;;;;;5051167;28;21559;-53
2022/12/24 07:18:09;;;;;;;7.32;2.20;;;19.90;47.10;;;;;;5049152;28;20471;-49
2022/12/24 07:20:34;;;;;;;8.38;2.65;;;19.90;47.20;;;;;;5049087;28;20029;-52
2022/12/24 07:23:00;;;;;;;11.45;3.00;;;19.90;47.10;;;;;;5050685;28;20021;-52
2022/12/24 07:25:26;;;;;;;8.43;3.03;;;19.90;47.10;;;;;;5051240;28;20029;-51
2022/12/24 07:27:52;;;;;;;10.02;3.05;;;19.90;47.10;;;;;;5049444;28;20162;-53
2022/12/24 07:30:18;;;;;;;8.65;2.75;;;19.90;47.10;;;;;;5049130;28;20083;-51
2022/12/24 07:32:43;;;;;;;7.65;2.75;;;19.90;47.20;;;;;;5050858;28;20040;-53
2022/12/24 07:35:10;;;;;;;7.38;2.75;;;19.90;47.20;;;;;;5050749;28;20059;-52
2022/12/24 07:37:35;;;;;;;7.60;2.78;;;19.90;47.20;;;;;;5048536;28;20021;-52
2022/12/24 07:40:04;;;;;;;7.72;3.00;;;19.90;47.20;;;;;;5050220;28;20025;-48
2022/12/24 07:42:29;;;;;;;9.70;3.10;;;19.90;47.20;;;;;;5053374;28;20060;-52
2022/12/24 07:44:55;;;;;;;10.00;3.05;;;19.90;47.20;;;;;;5054466;28;20072;-51
2022/12/24 07:47:21;;;;;;;9.50;2.83;;;19.90;47.30;;;;;;5037359;28;20114;-49
2022/12/24 07:49:47;;;;;;;9.80;2.80;;;19.90;47.30;;;;;;5054725;28;20032;-51
2022/12/24 07:52:12;;;;;;;9.52;2.95;;;19.90;47.30;;;;;;5054307;28;20364;-50
2022/12/24 07:54:38;;;;;;;8.35;3.10;;;19.90;47.30;;;;;;5047861;28;20075;-52
2022/12/24 07:57:04;;;;;;;13.45;2.92;;;19.80;47.30;;;;;;5052073;28;20043;-46
2022/12/24 07:59:30;;;;;;;10.98;3.63;;;19.90;47.30;;;;;;5052770;28;20033;-52
2022/12/24 08:01:56;;;;;;;8.38;2.80;;;19.90;47.30;;;;;;5052729;28;20032;-52
2022/12/24 08:04:21;;;;;;;11.65;3.28;;;19.90;47.30;;;;;;5050607;28;20025;-48
2022/12/24 08:06:47;;;;;;;8.98;3.03;;;19.80;47.30;;;;;;5051712;28;20030;-53
2022/12/24 08:09:14;;;;;;;8.70;2.67;;;19.80;47.30;;;;;;5049868;28;20047;-47
2022/12/24 08:11:40;;;;;;;8.55;2.78;;;19.80;47.30;;;;;;5050419;28;20534;-49
2022/12/24 08:14:05;;;;;;;8.23;2.85;;;19.80;47.30;;;;;;5050595;28;20056;-50
2022/12/24 08:16:31;;;;;;;10.63;3.08;;;19.80;47.30;;;;;;5052120;28;20464;-50
2022/12/24 08:18:57;;;;;;;8.18;2.88;;;19.80;47.30;;;;;;5047538;28;20061;-54
2022/12/24 08:21:23;;;;;;;8.10;2.90;;;19.80;47.30;;;;;;5051264;28;20209;-46
2022/12/24 08:23:48;;;;;;;9.45;2.88;;;19.80;47.30;;;;;;5049856;28;20453;-50
2022/12/24 08:26:15;;;;;;;7.40;2.70;;;19.80;47.30;;;;;;5051200;28;20033;-52
2022/12/24 08:28:40;;;;;;;8.35;3.08;;;19.80;48.00;;;;;;5049720;28;20032;-49
2022/12/24 08:31:07;;;;;;;10.32;3.28;;;19.80;47.40;;;;;;5050084;28;20037;-49
2022/12/24 08:33:33;;;;;;;8.40;2.90;;;19.80;47.40;;;;;;5055996;28;20029;-51
2022/12/24 08:36:00;;;;;;;7.57;2.85;;;19.90;47.50;;;;;;5052208;28;20364;-50
2022/12/24 08:38:26;;;;;;;6.75;2.53;;;19.90;47.50;;;;;;5051541;28;20099;-52
2022/12/24 08:40:53;;;;;;;9.57;3.05;;;19.90;47.40;;;;;;5047616;28;20415;-55
2022/12/24 08:43:20;;;;;;;7.70;2.72;;;20.00;47.40;;;;;;5046337;28;20017;-49
2022/12/24 08:45:48;;;;;;;8.95;3.30;;;20.00;47.30;;;;;;5043061;28;20075;-54
2022/12/24 08:48:15;;;;;;;10.23;3.17;;;20.10;47.30;;;;;;5047634;28;20056;-54
2022/12/24 08:50:41;;;;;;;6.50;2.30;;;20.20;47.20;;;;;;5044755;28;20029;-55
2022/12/24 08:53:08;;;;;;;9.13;2.47;;;20.20;47.10;;;;;;5045951;28;20044;-55
2022/12/24 08:55:35;;;;;;;7.57;2.65;;;20.20;47.00;;;;;;5047096;28;20036;-52
2022/12/24 08:58:01;;;;;;;9.73;3.10;;;20.30;47.00;;;;;;5045664;28;20059;-49
2022/12/24 09:00:27;;;;;;;8.82;3.13;;;20.40;47.10;;;;;;5046285;28;20037;-51
2022/12/24 09:02:54;;;;;;;8.65;3.13;;;20.50;47.10;;;;;;5047134;28;20025;-52
2022/12/24 09:05:24;;;;;;;12.40;3.20;;;20.50;47.00;;;;;;5046028;28;20345;-49
2022/12/24 09:07:51;;;;;;;10.13;3.15;;;20.60;46.90;;;;;;5050995;28;20337;-51
2022/12/24 09:10:18;;;;;;;9.38;2.95;;;20.70;46.90;;;;;;5045097;28;20040;-52
2022/12/24 09:12:44;;;;;;;10.57;3.47;;;20.70;46.70;;;;;;5043482;28;20048;-50
2022/12/24 09:15:10;;;;;;;12.27;3.38;;;20.80;46.60;;;;;;5044705;28;20041;-47
2022/12/24 09:17:36;;;;;;;8.70;3.15;;;20.80;46.40;;;;;;5043849;28;20040;-50
2022/12/24 09:20:03;;;;;;;11.48;3.10;;;20.90;46.20;;;;;;5048239;28;20033;-46
2022/12/24 09:22:29;;;;;;;8.75;3.10;;;21.00;46.30;;;;;;5045643;28;20028;-50
2022/12/24 09:24:55;;;;;;;9.20;2.92;;;21.00;46.00;;;;;;5049552;28;20086;-46
2022/12/24 09:27:20;;;;;;;8.65;3.78;;;21.10;45.90;;;;;;5046690;28;20028;-47
2022/12/24 09:29:47;;;;;;;9.93;2.90;;;21.20;45.90;;;;;;5042841;28;20044;-46
2022/12/24 09:32:13;;;;;;;8.02;2.85;;;21.20;45.80;;;;;;5037534;28;20368;-47
2022/12/24 09:34:39;;;;;;;9.52;3.25;;;21.30;45.70;;;;;;5048086;28;20028;-50
2022/12/24 09:37:05;;;;;;;7.82;2.78;;;21.30;45.60;;;;;;5050196;28;20036;-46
2022/12/24 09:39:31;;;;;;;11.85;3.08;;;21.40;45.50;;;;;;5053504;28;20041;-48
2022/12/24 09:42:06;;;;;;;8.38;3.05;;;21.40;45.40;;;;;;5054903;28;20057;-47
2022/12/24 09:44:45;;;;;;;8.65;2.83;;;21.40;45.30;;;;;;5053985;28;20388;-49
2022/12/24 09:47:38;;;;;;;7.25;3.15;;;21.50;45.20;;;;;;5051715;28;20384;-45
2022/12/24 09:50:23;;;;;;;7.82;2.80;;;21.50;45.10;;;;;;5041106;28;20032;-49
2022/12/24 09:52:52;;;;;;;12.30;3.20;;;21.60;45.00;;;;;;5053512;28;20040;-47
2022/12/24 09:55:22;;;;;;;8.85;2.92;;;21.60;45.00;;;;;;5050238;28;20024;-51
2022/12/24 09:57:50;;;;;;;9.07;3.05;;;21.60;44.90;;;;;;5054690;28;20033;-46
2022/12/24 10:00:37;;;;;;;7.25;2.70;;;21.70;44.90;;;;;;5053732;28;20029;-48
2022/12/24 10:03:17;;;;;;;8.70;2.80;;;21.70;44.80;;;;;;5054117;28;20060;-54
2022/12/24 10:06:02;;;;;;;10.45;3.33;;;21.70;44.80;;;;;;5052787;28;20032;-51
2022/12/24 10:08:55;;;;;;;7.80;3.05;;;21.80;44.90;;;;;;5051470;28;20061;-54
2022/12/24 10:11:30;;;;;;;9.65;3.03;;;21.80;45.00;;;;;;5053570;28;20048;-47
2022/12/24 10:14:08;;;;;;;7.95;2.65;;;21.80;45.00;;;;;;5053574;28;20043;-47
2022/12/24 10:16:36;;;;;;;7.97;3.22;;;21.80;45.00;;;;;;5048709;28;20040;-47
2022/12/24 10:19:09;;;;;;;8.55;2.95;;;21.90;45.00;;;;;;5033826;28;20044;-50
2022/12/24 10:22:18;;;;;;;9.18;3.30;;;21.90;44.90;;;;;;5053263;28;20025;-47
2022/12/24 10:25:03;;;;;;;8.32;2.50;;;21.90;44.90;;;;;;5046897;28;20464;-48
2022/12/24 10:27:33;;;;;;;;;;;21.90;44.70;;;;;;5052797;28;20028;-47
2022/12/24 10:30:05;;;;;;;8.52;2.72;;;21.90;44.80;;;;;;5053650;28;20344;-51
2022/12/24 10:32:33;;;;;;;7.43;2.70;;;21.90;45.00;;;;;;5049122;28;20074;-48
2022/12/24 10:35:07;;;;;;;9.02;3.20;;;21.80;45.20;;;;;;5046650;28;20041;-53
2022/12/24 10:37:32;;;;;;;9.43;3.17;;;21.80;45.20;;;;;;5053331;28;20071;-49
2022/12/24 10:40:01;;;;;;;11.18;3.13;;;21.90;45.20;;;;;;5052263;28;20032;-50
2022/12/24 10:42:54;;;;;;;8.05;2.67;;;21.90;45.10;;;;;;5051856;28;20032;-51
2022/12/24 10:45:24;;;;;;;7.60;2.80;;;21.90;45.00;;;;;;5046382;28;20044;-54
2022/12/24 10:47:56;;;;;;;11.82;3.42;;;21.90;45.00;;;;;;5051726;28;20436;-53
2022/12/24 10:50:35;;;;;;;6.35;2.60;;;21.90;44.90;;;;;;5053652;28;20029;-50
2022/12/24 10:53:20;;;;;;;8.23;2.70;;;21.90;44.90;;;;;;5048370;28;20075;-51
2022/12/24 10:55:47;;;;;;;9.23;2.83;;;21.90;44.80;;;;;;5051334;28;20037;-52
2022/12/24 10:58:17;;;;;;;8.73;2.88;;;21.90;44.80;;;;;;5052923;28;20032;-50
2022/12/24 11:00:54;;;;;;;9.65;2.70;;;21.90;44.80;;;;;;5052648;28;20029;-50
2022/12/24 11:03:27;;;;;;;8.70;3.53;;;21.90;44.80;;;;;;5035483;28;20044;-49
2022/12/24 11:06:21;;;;;;;6.25;2.67;;;21.90;44.80;;;;;;5050430;28;20170;-47
2022/12/24 11:08:47;;;;;;;8.32;2.83;;;21.90;44.70;;;;;;5046597;28;20124;-50
2022/12/24 11:11:16;;;;;;;8.15;2.63;;;21.90;44.80;;;;;;5051174;28;20781;-51
2022/12/24 11:13:44;;;;;;;7.25;2.80;;;21.80;44.70;;;;;;5052691;28;20044;-50
2022/12/24 11:16:30;;;;;;;9.45;2.72;;;21.90;44.80;;;;;;5054043;28;20472;-50
2022/12/24 11:19:01;;;;;;;8.82;2.83;;;21.80;44.70;;;;;;5038764;28;20039;-52
2022/12/24 11:21:32;;;;;;;9.75;3.00;;;21.80;44.70;;;;;;5055418;28;20033;-52
2022/12/24 11:24:26;;;;;;;8.70;2.55;;;21.80;44.70;;;;;;5054318;28;20087;-48
2022/12/24 11:26:53;;;;;;;7.55;2.70;;;21.80;44.70;;;;;;5055194;28;20029;-49
2022/12/24 11:29:27;;;;;;;8.38;2.97;;;21.80;44.60;;;;;;5053929;28;20040;-51
2022/12/24 11:32:19;;;;;;;8.27;2.90;;;21.80;44.60;;;;;;5053727;28;20059;-51
2022/12/24 11:34:46;;;;;;;6.82;2.55;;;21.80;44.60;;;;;;5050959;28;20361;-51
2022/12/24 11:37:21;;;;;;;6.10;2.53;;;21.80;44.60;;;;;;5052150;28;20021;-50
2022/12/24 11:39:52;;;;;;;8.38;2.88;;;21.80;44.70;;;;;;5053243;28;20507;-48
2022/12/24 11:42:39;;;;;;;7.32;2.53;;;21.80;44.90;;;;;;5056068;28;20028;-50
2022/12/24 11:45:19;;;;;;;9.88;3.20;;;21.80;45.30;;;;;;5055642;28;20116;-52
2022/12/24 11:47:45;;;;;;;9.32;2.75;;;21.80;45.30;;;;;;5033176;28;20036;-50
2022/12/24 11:50:27;;;;;;;8.07;2.70;;;21.80;45.20;;;;;;5058999;28;20451;-48
2022/12/24 11:53:02;;;;;;;11.43;3.00;;;21.80;45.00;;;;;;5055888;28;20044;-49
2022/12/24 11:55:46;;;;;;;8.75;2.55;;;21.80;45.00;;;;;;5059559;28;20368;-48
2022/12/24 11:58:24;;;;;;;8.47;2.30;;;21.80;44.90;;;;;;5049681;28;20033;-49
2022/12/24 12:00:51;;;;;;;6.53;2.53;;;21.80;44.90;;;;;;5056063;28;20020;-50
2022/12/24 12:03:34;;;;;;;8.35;2.85;;;21.80;44.70;;;;;;5053642;28;20035;-51
2022/12/24 12:06:08;;;;;;;6.75;2.40;;;21.80;44.70;;;;;;5057984;28;20043;-48
2022/12/24 12:08:35;;;;;;;7.93;2.72;;;21.80;44.60;;;;;;5049736;28;20060;-50
2022/12/24 12:11:13;;;;;;;8.20;2.65;;;21.80;44.60;;;;;;5052806;28;20048;-51
2022/12/24 12:13:42;;;;;;;8.45;2.72;;;21.80;44.60;;;;;;5050909;28;20025;-50
2022/12/24 12:16:29;;;;;;;7.70;2.80;;;21.80;44.50;;;;;;5062923;28;20055;-50
2022/12/24 12:19:02;;;;;;;9.35;2.60;;;21.80;44.60;;;;;;5050764;28;20613;-49
2022/12/24 12:21:42;;;;;;;7.88;2.38;;;21.80;44.60;;;;;;5050675;28;20048;-50
2022/12/24 12:24:36;;;;;;;8.88;2.47;;;21.80;44.50;;;;;;5049747;28;20025;-49
2022/12/24 12:27:18;;;;;;;8.55;2.72;;;21.80;44.50;;;;;;5050673;28;20452;-53
2022/12/24 12:29:51;;;;;;;8.32;2.92;;;21.80;44.50;;;;;;5052879;28;20037;-52
2022/12/24 12:32:51;;;;;;;9.50;2.95;;;21.80;44.50;;;;;;5052630;28;20052;-50
2022/12/24 12:35:28;;;;;;;7.30;2.60;;;21.80;44.40;;;;;;5050025;28;20029;-52
2022/12/24 12:38:10;;;;;;;7.80;2.70;;;21.80;44.70;;;;;;5047959;28;20078;-50
2022/12/24 12:41:10;;;;;;;6.38;2.60;;;21.70;45.00;;;;;;5049381;28;20108;-52
2022/12/24 12:43:39;;;;;;;5.43;2.60;;;21.80;45.10;;;;;;5049137;28;20056;-53
2022/12/24 12:46:23;;;;;;;6.80;2.33;;;21.80;45.00;;;;;;5052039;28;20037;-48
2022/12/24 12:49:18;;;;;;;7.68;2.13;;;21.80;44.90;;;;;;5033127;28;20025;-51
2022/12/24 12:51:58;;;;;;;6.18;2.50;;;21.80;44.80;;;;;;5048407;28;20059;-50
2022/12/24 12:54:30;;;;;;;5.60;2.08;;;21.70;44.80;;;;;;5049771;28;20025;-45
2022/12/24 12:57:03;;;;;;;6.10;2.30;;;21.70;44.70;;;;;;5040582;28;20024;-52
2022/12/24 12:59:34;;;;;;;8.63;2.85;;;21.70;44.70;;;;;;5054392;28;20037;-47
2022/12/24 13:02:20;;;;;;;6.90;2.28;;;21.70;44.70;;;;;;5058020;28;20035;-49
2022/12/24 13:05:07;;;;;;;9.18;3.10;;;21.70;44.60;;;;;;5049033;28;20352;-51
2022/12/24 13:07:42;;;;;;;6.45;2.50;;;21.70;44.60;;;;;;5054545;28;20021;-44
2022/12/24 13:10:45;;;;;;;6.15;2.35;;;21.70;44.60;;;;;;5054991;28;20418;-50
2022/12/24 13:13:34;;;;;;;9.27;2.67;;;21.70;44.50;;;;;;5032271;28;21131;-46